<?xml version="1.0" encoding="UTF-8" standalone="no" ?>
<gpx xmlns="http://www.topografix.com/GPX/1/1" xmlns:xsi="http://www.w3.org/2001/XMLSchema-instance" xsi:schemaLocation="http://www.topografix.com/GPX/1/1 http://www.topografix.com/GPX/1/1/gpx.xsd" version="1.1" creator="VisuGPX - https://www.visugpx.com">
  <metadata>
    <name>GR20 : Vizzavona - Onda par le Monte d'Oro</name>
  </metadata>
  <trk>
    <name><![CDATA[GR20 : Vizzavona - Onda par le Monte d'Oro_1]]></name>
    <trkseg>
      <trkpt lat="42.12785" lon="9.1341">
        <ele>960.52</ele>
        <time>2018-08-30T13:46:01Z</time>
      </trkpt>
      <trkpt lat="42.12785" lon="9.1341">
        <ele>960.52</ele>
        <time>2018-08-30T13:46:01Z</time>
      </trkpt>
      <trkpt lat="42.12779" lon="9.13415">
        <ele>926.99</ele>
        <time>2018-08-30T13:45:36Z</time>
      </trkpt>
      <trkpt lat="42.12779" lon="9.13415">
        <ele>929.3</ele>
        <time>2018-08-30T13:45:34Z</time>
      </trkpt>
      <trkpt lat="42.1278" lon="9.13411">
        <ele>926.63</ele>
        <time>2018-08-30T13:45:14Z</time>
      </trkpt>
      <trkpt lat="42.12785" lon="9.13412">
        <ele>926.52</ele>
        <time>2018-08-30T13:44:55Z</time>
      </trkpt>
      <trkpt lat="42.12782" lon="9.1342">
        <ele>926.4</ele>
        <time>2018-08-30T13:44:36Z</time>
      </trkpt>
      <trkpt lat="42.12783" lon="9.13422">
        <ele>926.35</ele>
        <time>2018-08-30T13:44:31Z</time>
      </trkpt>
      <trkpt lat="42.12784" lon="9.13424">
        <ele>928.83</ele>
        <time>2018-08-30T13:44:26Z</time>
      </trkpt>
      <trkpt lat="42.12784" lon="9.13422">
        <ele>928.73</ele>
        <time>2018-08-30T13:44:02Z</time>
      </trkpt>
      <trkpt lat="42.12784" lon="9.13421">
        <ele>926.28</ele>
        <time>2018-08-30T13:44:00Z</time>
      </trkpt>
      <trkpt lat="42.12789" lon="9.13412">
        <ele>926.19</ele>
        <time>2018-08-30T13:43:42Z</time>
      </trkpt>
      <trkpt lat="42.12793" lon="9.13381">
        <ele>926.12</ele>
        <time>2018-08-30T13:43:25Z</time>
      </trkpt>
      <trkpt lat="42.12785" lon="9.13362">
        <ele>926.03</ele>
        <time>2018-08-30T13:43:13Z</time>
      </trkpt>
      <trkpt lat="42.12786" lon="9.13366">
        <ele>925.93</ele>
        <time>2018-08-30T13:42:57Z</time>
      </trkpt>
      <trkpt lat="42.12787" lon="9.13372">
        <ele>928.25</ele>
        <time>2018-08-30T13:42:47Z</time>
      </trkpt>
      <trkpt lat="42.12782" lon="9.13379">
        <ele>928.23</ele>
        <time>2018-08-30T13:42:40Z</time>
      </trkpt>
      <trkpt lat="42.1278" lon="9.13385">
        <ele>928.22</ele>
        <time>2018-08-30T13:42:38Z</time>
      </trkpt>
      <trkpt lat="42.12784" lon="9.13387">
        <ele>928.21</ele>
        <time>2018-08-30T13:42:35Z</time>
      </trkpt>
      <trkpt lat="42.12766" lon="9.134">
        <ele>928.09</ele>
        <time>2018-08-30T13:42:07Z</time>
      </trkpt>
      <trkpt lat="42.12766" lon="9.13407">
        <ele>928.06</ele>
        <time>2018-08-30T13:42:01Z</time>
      </trkpt>
      <trkpt lat="42.12768" lon="9.13407">
        <ele>928.06</ele>
        <time>2018-08-30T13:41:58Z</time>
      </trkpt>
      <trkpt lat="42.12778" lon="9.13389">
        <ele>927.98</ele>
        <time>2018-08-30T13:41:29Z</time>
      </trkpt>
      <trkpt lat="42.12785" lon="9.13383">
        <ele>927.75</ele>
        <time>2018-08-30T13:40:40Z</time>
      </trkpt>
      <trkpt lat="42.1279" lon="9.13381">
        <ele>927.72</ele>
        <time>2018-08-30T13:40:22Z</time>
      </trkpt>
      <trkpt lat="42.12792" lon="9.13382">
        <ele>925.08</ele>
        <time>2018-08-30T13:40:17Z</time>
      </trkpt>
      <trkpt lat="42.12795" lon="9.13384">
        <ele>924.99</ele>
        <time>2018-08-30T13:40:02Z</time>
      </trkpt>
      <trkpt lat="42.12796" lon="9.13389">
        <ele>924.86</ele>
        <time>2018-08-30T13:39:42Z</time>
      </trkpt>
      <trkpt lat="42.12796" lon="9.13401">
        <ele>924.77</ele>
        <time>2018-08-30T13:39:29Z</time>
      </trkpt>
      <trkpt lat="42.12795" lon="9.1341">
        <ele>924.6</ele>
        <time>2018-08-30T13:39:05Z</time>
      </trkpt>
      <trkpt lat="42.12795" lon="9.13409">
        <ele>924.31</ele>
        <time>2018-08-30T13:38:24Z</time>
      </trkpt>
      <trkpt lat="42.12794" lon="9.13409">
        <ele>924.16</ele>
        <time>2018-08-30T13:37:58Z</time>
      </trkpt>
      <trkpt lat="42.12795" lon="9.13408">
        <ele>924.08</ele>
        <time>2018-08-30T13:37:43Z</time>
      </trkpt>
      <trkpt lat="42.12795" lon="9.13408">
        <ele>923.83</ele>
        <time>2018-08-30T13:36:46Z</time>
      </trkpt>
      <trkpt lat="42.12795" lon="9.13406">
        <ele>923.72</ele>
        <time>2018-08-30T13:36:22Z</time>
      </trkpt>
      <trkpt lat="42.12793" lon="9.13402">
        <ele>926.27</ele>
        <time>2018-08-30T13:36:12Z</time>
      </trkpt>
      <trkpt lat="42.1279" lon="9.13379">
        <ele>926.28</ele>
        <time>2018-08-30T13:35:56Z</time>
      </trkpt>
      <trkpt lat="42.12771" lon="9.13385">
        <ele>926.31</ele>
        <time>2018-08-30T13:35:43Z</time>
      </trkpt>
      <trkpt lat="42.12788" lon="9.13388">
        <ele>926.31</ele>
        <time>2018-08-30T13:35:24Z</time>
      </trkpt>
      <trkpt lat="42.12783" lon="9.13391">
        <ele>926.51</ele>
        <time>2018-08-30T13:33:40Z</time>
      </trkpt>
      <trkpt lat="42.12787" lon="9.13389">
        <ele>926.54</ele>
        <time>2018-08-30T13:33:23Z</time>
      </trkpt>
      <trkpt lat="42.12791" lon="9.13383">
        <ele>926.59</ele>
        <time>2018-08-30T13:32:48Z</time>
      </trkpt>
      <trkpt lat="42.12795" lon="9.13382">
        <ele>926.62</ele>
        <time>2018-08-30T13:32:25Z</time>
      </trkpt>
      <trkpt lat="42.12797" lon="9.1338">
        <ele>924.42</ele>
        <time>2018-08-30T13:31:58Z</time>
      </trkpt>
      <trkpt lat="42.12798" lon="9.1338">
        <ele>924.46</ele>
        <time>2018-08-30T13:31:39Z</time>
      </trkpt>
      <trkpt lat="42.12797" lon="9.1338">
        <ele>924.51</ele>
        <time>2018-08-30T13:31:15Z</time>
      </trkpt>
      <trkpt lat="42.12792" lon="9.13378">
        <ele>925.39</ele>
        <time>2018-08-30T13:31:01Z</time>
      </trkpt>
      <trkpt lat="42.12781" lon="9.13371">
        <ele>925.38</ele>
        <time>2018-08-30T13:30:46Z</time>
      </trkpt>
      <trkpt lat="42.12781" lon="9.13365">
        <ele>925.4</ele>
        <time>2018-08-30T13:30:42Z</time>
      </trkpt>
      <trkpt lat="42.12779" lon="9.13357">
        <ele>925.43</ele>
        <time>2018-08-30T13:30:29Z</time>
      </trkpt>
      <trkpt lat="42.12777" lon="9.13355">
        <ele>925.46</ele>
        <time>2018-08-30T13:30:15Z</time>
      </trkpt>
      <trkpt lat="42.12777" lon="9.13343">
        <ele>926.38</ele>
        <time>2018-08-30T13:29:58Z</time>
      </trkpt>
      <trkpt lat="42.12777" lon="9.13343">
        <ele>927.32</ele>
        <time>2018-08-30T13:29:52Z</time>
      </trkpt>
      <trkpt lat="42.12787" lon="9.13323">
        <ele>928.23</ele>
        <time>2018-08-30T13:29:31Z</time>
      </trkpt>
      <trkpt lat="42.12786" lon="9.13312">
        <ele>929.16</ele>
        <time>2018-08-30T13:29:23Z</time>
      </trkpt>
      <trkpt lat="42.12779" lon="9.13319">
        <ele>930.02</ele>
        <time>2018-08-30T13:29:07Z</time>
      </trkpt>
      <trkpt lat="42.12775" lon="9.13324">
        <ele>931.41</ele>
        <time>2018-08-30T13:29:02Z</time>
      </trkpt>
      <trkpt lat="42.12766" lon="9.13329">
        <ele>931.43</ele>
        <time>2018-08-30T13:28:53Z</time>
      </trkpt>
      <trkpt lat="42.12763" lon="9.13325">
        <ele>933.08</ele>
        <time>2018-08-30T13:28:49Z</time>
      </trkpt>
      <trkpt lat="42.12759" lon="9.13299">
        <ele>934.05</ele>
        <time>2018-08-30T13:28:31Z</time>
      </trkpt>
      <trkpt lat="42.12755" lon="9.13284">
        <ele>934.92</ele>
        <time>2018-08-30T13:28:16Z</time>
      </trkpt>
      <trkpt lat="42.12753" lon="9.13284">
        <ele>934.82</ele>
        <time>2018-08-30T13:28:14Z</time>
      </trkpt>
      <trkpt lat="42.12753" lon="9.13283">
        <ele>934.82</ele>
        <time>2018-08-30T13:28:11Z</time>
      </trkpt>
      <trkpt lat="42.12752" lon="9.13277">
        <ele>935.75</ele>
        <time>2018-08-30T13:28:00Z</time>
      </trkpt>
      <trkpt lat="42.12744" lon="9.13251">
        <ele>937.37</ele>
        <time>2018-08-30T13:27:41Z</time>
      </trkpt>
      <trkpt lat="42.12736" lon="9.13225">
        <ele>939.12</ele>
        <time>2018-08-30T13:27:23Z</time>
      </trkpt>
      <trkpt lat="42.12731" lon="9.13239">
        <ele>940.92</ele>
        <time>2018-08-30T13:27:09Z</time>
      </trkpt>
      <trkpt lat="42.12724" lon="9.13262">
        <ele>941.61</ele>
        <time>2018-08-30T13:26:52Z</time>
      </trkpt>
      <trkpt lat="42.1271" lon="9.13285">
        <ele>942.38</ele>
        <time>2018-08-30T13:26:34Z</time>
      </trkpt>
      <trkpt lat="42.12706" lon="9.13285">
        <ele>944.17</ele>
        <time>2018-08-30T13:26:25Z</time>
      </trkpt>
      <trkpt lat="42.12701" lon="9.1326">
        <ele>944.93</ele>
        <time>2018-08-30T13:26:07Z</time>
      </trkpt>
      <trkpt lat="42.12699" lon="9.13256">
        <ele>944.95</ele>
        <time>2018-08-30T13:26:04Z</time>
      </trkpt>
      <trkpt lat="42.12697" lon="9.13252">
        <ele>944.99</ele>
        <time>2018-08-30T13:26:00Z</time>
      </trkpt>
      <trkpt lat="42.12695" lon="9.13246">
        <ele>945.01</ele>
        <time>2018-08-30T13:25:56Z</time>
      </trkpt>
      <trkpt lat="42.12693" lon="9.1324">
        <ele>946.21</ele>
        <time>2018-08-30T13:25:51Z</time>
      </trkpt>
      <trkpt lat="42.12689" lon="9.13225">
        <ele>947.34</ele>
        <time>2018-08-30T13:25:40Z</time>
      </trkpt>
      <trkpt lat="42.1269" lon="9.13221">
        <ele>947.34</ele>
        <time>2018-08-30T13:25:38Z</time>
      </trkpt>
      <trkpt lat="42.12689" lon="9.13196">
        <ele>947.33</ele>
        <time>2018-08-30T13:25:21Z</time>
      </trkpt>
      <trkpt lat="42.12683" lon="9.13169">
        <ele>948.22</ele>
        <time>2018-08-30T13:25:02Z</time>
      </trkpt>
      <trkpt lat="42.12679" lon="9.1316">
        <ele>948.14</ele>
        <time>2018-08-30T13:24:56Z</time>
      </trkpt>
      <trkpt lat="42.12669" lon="9.13146">
        <ele>950.6</ele>
        <time>2018-08-30T13:24:45Z</time>
      </trkpt>
      <trkpt lat="42.12656" lon="9.13131">
        <ele>950.57</ele>
        <time>2018-08-30T13:24:29Z</time>
      </trkpt>
      <trkpt lat="42.12639" lon="9.13118">
        <ele>950.52</ele>
        <time>2018-08-30T13:24:13Z</time>
      </trkpt>
      <trkpt lat="42.12628" lon="9.13112">
        <ele>950.49</ele>
        <time>2018-08-30T13:24:04Z</time>
      </trkpt>
      <trkpt lat="42.12621" lon="9.13113">
        <ele>948.26</ele>
        <time>2018-08-30T13:23:59Z</time>
      </trkpt>
      <trkpt lat="42.12604" lon="9.13114">
        <ele>948.14</ele>
        <time>2018-08-30T13:23:44Z</time>
      </trkpt>
      <trkpt lat="42.12589" lon="9.13113">
        <ele>949</ele>
        <time>2018-08-30T13:23:31Z</time>
      </trkpt>
      <trkpt lat="42.12586" lon="9.13112">
        <ele>948.98</ele>
        <time>2018-08-30T13:23:29Z</time>
      </trkpt>
      <trkpt lat="42.12577" lon="9.13111">
        <ele>949.87</ele>
        <time>2018-08-30T13:23:22Z</time>
      </trkpt>
      <trkpt lat="42.1257" lon="9.13112">
        <ele>949.85</ele>
        <time>2018-08-30T13:23:16Z</time>
      </trkpt>
      <trkpt lat="42.12568" lon="9.13105">
        <ele>951.26</ele>
        <time>2018-08-30T13:23:08Z</time>
      </trkpt>
      <trkpt lat="42.12567" lon="9.13104">
        <ele>951.25</ele>
        <time>2018-08-30T13:23:07Z</time>
      </trkpt>
      <trkpt lat="42.12564" lon="9.13091">
        <ele>952.34</ele>
        <time>2018-08-30T13:22:53Z</time>
      </trkpt>
      <trkpt lat="42.12564" lon="9.13079">
        <ele>953.92</ele>
        <time>2018-08-30T13:22:42Z</time>
      </trkpt>
      <trkpt lat="42.12574" lon="9.13072">
        <ele>953.99</ele>
        <time>2018-08-30T13:22:31Z</time>
      </trkpt>
      <trkpt lat="42.12575" lon="9.13071">
        <ele>954.01</ele>
        <time>2018-08-30T13:22:30Z</time>
      </trkpt>
      <trkpt lat="42.12587" lon="9.13068">
        <ele>952.24</ele>
        <time>2018-08-30T13:22:16Z</time>
      </trkpt>
      <trkpt lat="42.12599" lon="9.13064">
        <ele>951.27</ele>
        <time>2018-08-30T13:22:03Z</time>
      </trkpt>
      <trkpt lat="42.12608" lon="9.13056">
        <ele>949.03</ele>
        <time>2018-08-30T13:21:54Z</time>
      </trkpt>
      <trkpt lat="42.12622" lon="9.13045">
        <ele>949.01</ele>
        <time>2018-08-30T13:21:41Z</time>
      </trkpt>
      <trkpt lat="42.12637" lon="9.13038">
        <ele>948.89</ele>
        <time>2018-08-30T13:21:27Z</time>
      </trkpt>
      <trkpt lat="42.12639" lon="9.13035">
        <ele>950.47</ele>
        <time>2018-08-30T13:21:24Z</time>
      </trkpt>
      <trkpt lat="42.1265" lon="9.13024">
        <ele>952.84</ele>
        <time>2018-08-30T13:21:09Z</time>
      </trkpt>
      <trkpt lat="42.12654" lon="9.1301">
        <ele>952.79</ele>
        <time>2018-08-30T13:20:59Z</time>
      </trkpt>
      <trkpt lat="42.12652" lon="9.13003">
        <ele>952.7</ele>
        <time>2018-08-30T13:20:53Z</time>
      </trkpt>
      <trkpt lat="42.12651" lon="9.13002">
        <ele>952.79</ele>
        <time>2018-08-30T13:20:52Z</time>
      </trkpt>
      <trkpt lat="42.12651" lon="9.13001">
        <ele>952.79</ele>
        <time>2018-08-30T13:20:51Z</time>
      </trkpt>
      <trkpt lat="42.12641" lon="9.12984">
        <ele>949.46</ele>
        <time>2018-08-30T13:20:35Z</time>
      </trkpt>
      <trkpt lat="42.12631" lon="9.12973">
        <ele>949.37</ele>
        <time>2018-08-30T13:20:23Z</time>
      </trkpt>
      <trkpt lat="42.12629" lon="9.12966">
        <ele>949.38</ele>
        <time>2018-08-30T13:20:18Z</time>
      </trkpt>
      <trkpt lat="42.12628" lon="9.12963">
        <ele>949.38</ele>
        <time>2018-08-30T13:20:16Z</time>
      </trkpt>
      <trkpt lat="42.12629" lon="9.1295">
        <ele>949.24</ele>
        <time>2018-08-30T13:20:03Z</time>
      </trkpt>
      <trkpt lat="42.12629" lon="9.12947">
        <ele>949.27</ele>
        <time>2018-08-30T13:20:00Z</time>
      </trkpt>
      <trkpt lat="42.12623" lon="9.12938">
        <ele>949.23</ele>
        <time>2018-08-30T13:19:45Z</time>
      </trkpt>
      <trkpt lat="42.12628" lon="9.12941">
        <ele>950</ele>
        <time>2018-08-30T13:19:29Z</time>
      </trkpt>
      <trkpt lat="42.12635" lon="9.12937">
        <ele>950.72</ele>
        <time>2018-08-30T13:19:16Z</time>
      </trkpt>
      <trkpt lat="42.12642" lon="9.12923">
        <ele>954.48</ele>
        <time>2018-08-30T13:19:01Z</time>
      </trkpt>
      <trkpt lat="42.12653" lon="9.12915">
        <ele>956.36</ele>
        <time>2018-08-30T13:18:48Z</time>
      </trkpt>
      <trkpt lat="42.12653" lon="9.12914">
        <ele>956.42</ele>
        <time>2018-08-30T13:18:47Z</time>
      </trkpt>
      <trkpt lat="42.12652" lon="9.12908">
        <ele>957.43</ele>
        <time>2018-08-30T13:18:35Z</time>
      </trkpt>
      <trkpt lat="42.12843" lon="9.12801">
        <ele>989.9</ele>
      </trkpt>
      <trkpt lat="42.12996" lon="9.12833">
        <ele>1005.7</ele>
      </trkpt>
      <trkpt lat="42.13023" lon="9.12818">
        <ele>1012.4</ele>
      </trkpt>
      <trkpt lat="42.1308" lon="9.12713">
        <ele>1048.9</ele>
      </trkpt>
      <trkpt lat="42.13085" lon="9.12676">
        <ele>1054.5</ele>
      </trkpt>
      <trkpt lat="42.13176" lon="9.12563">
        <ele>1090.5</ele>
      </trkpt>
      <trkpt lat="42.13188" lon="9.12539">
        <ele>1098.4</ele>
      </trkpt>
      <trkpt lat="42.13239" lon="9.12513">
        <ele>1107.1</ele>
      </trkpt>
      <trkpt lat="42.13247" lon="9.12524">
        <ele>1104.2</ele>
      </trkpt>
      <trkpt lat="42.13241" lon="9.12567">
        <ele>1091.1</ele>
      </trkpt>
      <trkpt lat="42.13274" lon="9.12606">
        <ele>1081.6</ele>
      </trkpt>
      <trkpt lat="42.13414" lon="9.12629">
        <ele>1103.5</ele>
      </trkpt>
      <trkpt lat="42.13441" lon="9.12694">
        <ele>1102.1</ele>
      </trkpt>
      <trkpt lat="42.13642" lon="9.129">
        <ele>1117.2</ele>
      </trkpt>
      <trkpt lat="42.13696" lon="9.12908">
        <ele>1125.4</ele>
      </trkpt>
      <trkpt lat="42.13714" lon="9.12861">
        <ele>1130.6</ele>
      </trkpt>
      <trkpt lat="42.13682" lon="9.12769">
        <ele>1149.5</ele>
      </trkpt>
      <trkpt lat="42.13698" lon="9.12698">
        <ele>1163.6</ele>
      </trkpt>
      <trkpt lat="42.13636" lon="9.12614">
        <ele>1177.1</ele>
      </trkpt>
      <trkpt lat="42.13642" lon="9.12593">
        <ele>1181.6</ele>
      </trkpt>
      <trkpt lat="42.13618" lon="9.12541">
        <ele>1199.2</ele>
      </trkpt>
      <trkpt lat="42.13664" lon="9.12539">
        <ele>1203.3</ele>
      </trkpt>
      <trkpt lat="42.13677" lon="9.12518">
        <ele>1214.9</ele>
      </trkpt>
      <trkpt lat="42.13615" lon="9.12404">
        <ele>1247.3</ele>
      </trkpt>
      <trkpt lat="42.13664" lon="9.12391">
        <ele>1253</ele>
      </trkpt>
      <trkpt lat="42.13687" lon="9.12363">
        <ele>1267</ele>
      </trkpt>
      <trkpt lat="42.13694" lon="9.12316">
        <ele>1289.8</ele>
      </trkpt>
      <trkpt lat="42.13731" lon="9.12294">
        <ele>1294.2</ele>
      </trkpt>
      <trkpt lat="42.13831" lon="9.12352">
        <ele>1294.6</ele>
      </trkpt>
      <trkpt lat="42.1392" lon="9.12382">
        <ele>1319</ele>
      </trkpt>
      <trkpt lat="42.13998" lon="9.12275">
        <ele>1345.1</ele>
      </trkpt>
      <trkpt lat="42.14003" lon="9.12252">
        <ele>1348.4</ele>
      </trkpt>
      <trkpt lat="42.14051" lon="9.12155">
        <ele>1366.9</ele>
      </trkpt>
      <trkpt lat="42.1407" lon="9.12073">
        <ele>1372.1</ele>
      </trkpt>
      <trkpt lat="42.14092" lon="9.11953">
        <ele>1391.3</ele>
      </trkpt>
      <trkpt lat="42.14118" lon="9.11949">
        <ele>1396.3</ele>
      </trkpt>
      <trkpt lat="42.14118" lon="9.11921">
        <ele>1396.5</ele>
      </trkpt>
      <trkpt lat="42.14146" lon="9.11867">
        <ele>1414.7</ele>
      </trkpt>
      <trkpt lat="42.14156" lon="9.11805">
        <ele>1430.5</ele>
      </trkpt>
      <trkpt lat="42.1417" lon="9.11805">
        <ele>1450.1</ele>
      </trkpt>
      <trkpt lat="42.14178" lon="9.11792">
        <ele>1453.8</ele>
      </trkpt>
      <trkpt lat="42.14191" lon="9.11799">
        <ele>1455.6</ele>
      </trkpt>
      <trkpt lat="42.14207" lon="9.11752">
        <ele>1462.3</ele>
      </trkpt>
      <trkpt lat="42.14221" lon="9.11747">
        <ele>1477.9</ele>
      </trkpt>
      <trkpt lat="42.14242" lon="9.11724">
        <ele>1482.1</ele>
      </trkpt>
      <trkpt lat="42.14245" lon="9.11661">
        <ele>1500.9</ele>
      </trkpt>
      <trkpt lat="42.14221" lon="9.11638">
        <ele>1503</ele>
      </trkpt>
      <trkpt lat="42.14226" lon="9.11616">
        <ele>1507.3</ele>
      </trkpt>
      <trkpt lat="42.14247" lon="9.11608">
        <ele>1512.1</ele>
      </trkpt>
      <trkpt lat="42.14235" lon="9.11586">
        <ele>1516.4</ele>
      </trkpt>
      <trkpt lat="42.14212" lon="9.1158">
        <ele>1523.5</ele>
      </trkpt>
      <trkpt lat="42.14245" lon="9.1149">
        <ele>1543.9</ele>
      </trkpt>
      <trkpt lat="42.14269" lon="9.11483">
        <ele>1561</ele>
      </trkpt>
      <trkpt lat="42.14288" lon="9.11434">
        <ele>1572.7</ele>
      </trkpt>
      <trkpt lat="42.14302" lon="9.11376">
        <ele>1601.5</ele>
      </trkpt>
      <trkpt lat="42.14318" lon="9.11363">
        <ele>1607.9</ele>
      </trkpt>
      <trkpt lat="42.14305" lon="9.11322">
        <ele>1630.6</ele>
      </trkpt>
      <trkpt lat="42.14313" lon="9.11299">
        <ele>1634.5</ele>
      </trkpt>
      <trkpt lat="42.14305" lon="9.11277">
        <ele>1637.7</ele>
      </trkpt>
      <trkpt lat="42.14336" lon="9.11271">
        <ele>1660.9</ele>
      </trkpt>
      <trkpt lat="42.14344" lon="9.11252">
        <ele>1661.5</ele>
      </trkpt>
      <trkpt lat="42.14312" lon="9.11207">
        <ele>1665.5</ele>
      </trkpt>
      <trkpt lat="42.14312" lon="9.11179">
        <ele>1672.1</ele>
      </trkpt>
      <trkpt lat="42.14296" lon="9.11138">
        <ele>1693.4</ele>
      </trkpt>
      <trkpt lat="42.14239" lon="9.1111">
        <ele>1681.7</ele>
      </trkpt>
      <trkpt lat="42.14248" lon="9.11097">
        <ele>1689.7</ele>
      </trkpt>
      <trkpt lat="42.14235" lon="9.11052">
        <ele>1709</ele>
      </trkpt>
      <trkpt lat="42.1424" lon="9.11026">
        <ele>1717.4</ele>
      </trkpt>
      <trkpt lat="42.14253" lon="9.11028">
        <ele>1729.7</ele>
      </trkpt>
      <trkpt lat="42.1427" lon="9.11005">
        <ele>1734</ele>
      </trkpt>
      <trkpt lat="42.14255" lon="9.1097">
        <ele>1755.9</ele>
      </trkpt>
      <trkpt lat="42.14296" lon="9.10936">
        <ele>1768.8</ele>
      </trkpt>
      <trkpt lat="42.14331" lon="9.10943">
        <ele>1773.5</ele>
      </trkpt>
      <trkpt lat="42.14329" lon="9.10919">
        <ele>1786.4</ele>
      </trkpt>
      <trkpt lat="42.14347" lon="9.10923">
        <ele>1796.4</ele>
      </trkpt>
      <trkpt lat="42.1435" lon="9.10902">
        <ele>1816.1</ele>
      </trkpt>
      <trkpt lat="42.14366" lon="9.10908">
        <ele>1823.3</ele>
      </trkpt>
      <trkpt lat="42.14371" lon="9.10889">
        <ele>1829.1</ele>
      </trkpt>
      <trkpt lat="42.14383" lon="9.10891">
        <ele>1833</ele>
      </trkpt>
      <trkpt lat="42.14374" lon="9.10872">
        <ele>1833.5</ele>
      </trkpt>
      <trkpt lat="42.14383" lon="9.10848">
        <ele>1841.5</ele>
      </trkpt>
      <trkpt lat="42.14369" lon="9.10827">
        <ele>1854.7</ele>
      </trkpt>
      <trkpt lat="42.1439" lon="9.10818">
        <ele>1863.2</ele>
      </trkpt>
      <trkpt lat="42.14391" lon="9.10805">
        <ele>1864.2</ele>
      </trkpt>
      <trkpt lat="42.14374" lon="9.1079">
        <ele>1861.4</ele>
      </trkpt>
      <trkpt lat="42.14375" lon="9.10664">
        <ele>1894.7</ele>
      </trkpt>
      <trkpt lat="42.14391" lon="9.10672">
        <ele>1888.2</ele>
      </trkpt>
      <trkpt lat="42.14395" lon="9.10631">
        <ele>1900.7</ele>
      </trkpt>
      <trkpt lat="42.14375" lon="9.10563">
        <ele>1920.9</ele>
      </trkpt>
      <trkpt lat="42.14385" lon="9.10556">
        <ele>1922.6</ele>
      </trkpt>
      <trkpt lat="42.1438" lon="9.10533">
        <ele>1926.1</ele>
      </trkpt>
      <trkpt lat="42.14391" lon="9.10533">
        <ele>1926.9</ele>
      </trkpt>
      <trkpt lat="42.14391" lon="9.10516">
        <ele>1929.9</ele>
      </trkpt>
      <trkpt lat="42.1438" lon="9.10488">
        <ele>1949.5</ele>
      </trkpt>
      <trkpt lat="42.1435" lon="9.10479">
        <ele>1948.2</ele>
      </trkpt>
      <trkpt lat="42.14288" lon="9.1041">
        <ele>1982.8</ele>
      </trkpt>
      <trkpt lat="42.14285" lon="9.10391">
        <ele>1987.1</ele>
      </trkpt>
      <trkpt lat="42.14245" lon="9.10383">
        <ele>1993.6</ele>
      </trkpt>
      <trkpt lat="42.14202" lon="9.10402">
        <ele>1996.4</ele>
      </trkpt>
      <trkpt lat="42.14172" lon="9.10449">
        <ele>1975.8</ele>
      </trkpt>
      <trkpt lat="42.14134" lon="9.10449">
        <ele>2015.3</ele>
      </trkpt>
      <trkpt lat="42.14107" lon="9.10466">
        <ele>2024.4</ele>
      </trkpt>
      <trkpt lat="42.14" lon="9.10383">
        <ele>2147.2</ele>
      </trkpt>
      <trkpt lat="42.13994" lon="9.10368">
        <ele>2148.8</ele>
      </trkpt>
      <trkpt lat="42.13978" lon="9.10372">
        <ele>2149.9</ele>
      </trkpt>
      <trkpt lat="42.13925" lon="9.10353">
        <ele>2161.1</ele>
      </trkpt>
      <trkpt lat="42.13916" lon="9.1032">
        <ele>2176.4</ele>
      </trkpt>
      <trkpt lat="42.13889" lon="9.10292">
        <ele>2180.2</ele>
      </trkpt>
      <trkpt lat="42.1389" lon="9.10247">
        <ele>2204.1</ele>
      </trkpt>
      <trkpt lat="42.13912" lon="9.10243">
        <ele>2204.3</ele>
      </trkpt>
      <trkpt lat="42.13908" lon="9.10213">
        <ele>2209.7</ele>
      </trkpt>
      <trkpt lat="42.13882" lon="9.10194">
        <ele>2211</ele>
      </trkpt>
      <trkpt lat="42.13849" lon="9.10078">
        <ele>2250.7</ele>
      </trkpt>
      <trkpt lat="42.13817" lon="9.10044">
        <ele>2260.5</ele>
      </trkpt>
      <trkpt lat="42.13806" lon="9.10009">
        <ele>2266.8</ele>
      </trkpt>
      <trkpt lat="42.1371" lon="9.09992">
        <ele>2299.1</ele>
      </trkpt>
      <trkpt lat="42.13699" lon="9.09977">
        <ele>2301.9</ele>
      </trkpt>
      <trkpt lat="42.13709" lon="9.09964">
        <ele>2304.6</ele>
      </trkpt>
      <trkpt lat="42.13656" lon="9.09951">
        <ele>2299.4</ele>
      </trkpt>
      <trkpt lat="42.13653" lon="9.09913">
        <ele>2309.1</ele>
      </trkpt>
      <trkpt lat="42.13632" lon="9.09893">
        <ele>2296.9</ele>
      </trkpt>
      <trkpt lat="42.13636" lon="9.09878">
        <ele>2296.7</ele>
      </trkpt>
      <trkpt lat="42.13624" lon="9.09863">
        <ele>2291.9</ele>
      </trkpt>
      <trkpt lat="42.13656" lon="9.09704">
        <ele>2263.6</ele>
      </trkpt>
      <trkpt lat="42.13647" lon="9.09677">
        <ele>2259.5</ele>
      </trkpt>
      <trkpt lat="42.13663" lon="9.09608">
        <ele>2239.3</ele>
      </trkpt>
      <trkpt lat="42.13639" lon="9.09546">
        <ele>2232.6</ele>
      </trkpt>
      <trkpt lat="42.13639" lon="9.09466">
        <ele>2235.2</ele>
      </trkpt>
      <trkpt lat="42.13722" lon="9.09318">
        <ele>2197.9</ele>
      </trkpt>
      <trkpt lat="42.1372" lon="9.09269">
        <ele>2192.7</ele>
      </trkpt>
      <trkpt lat="42.13796" lon="9.09166">
        <ele>2131.6</ele>
      </trkpt>
      <trkpt lat="42.13819" lon="9.09091">
        <ele>2128.6</ele>
      </trkpt>
      <trkpt lat="42.13817" lon="9.09059">
        <ele>2106.6</ele>
      </trkpt>
      <trkpt lat="42.13834" lon="9.08973">
        <ele>2088.5</ele>
      </trkpt>
      <trkpt lat="42.13858" lon="9.08958">
        <ele>2088.6</ele>
      </trkpt>
      <trkpt lat="42.13857" lon="9.08934">
        <ele>2080.9</ele>
      </trkpt>
      <trkpt lat="42.13877" lon="9.08896">
        <ele>2073.7</ele>
      </trkpt>
      <trkpt lat="42.13804" lon="9.0869">
        <ele>2027.7</ele>
      </trkpt>
      <trkpt lat="42.13796" lon="9.08569">
        <ele>2020.9</ele>
      </trkpt>
      <trkpt lat="42.13784" lon="9.08492">
        <ele>2010.7</ele>
      </trkpt>
      <trkpt lat="42.13737" lon="9.08434">
        <ele>1996.6</ele>
      </trkpt>
      <trkpt lat="42.13725" lon="9.08419">
        <ele>1993.8</ele>
      </trkpt>
      <trkpt lat="42.13721" lon="9.08411">
        <ele>1998</ele>
      </trkpt>
      <trkpt lat="42.1372" lon="9.08392">
        <ele>1997.8</ele>
      </trkpt>
      <trkpt lat="42.13712" lon="9.08325">
        <ele>2005.8</ele>
      </trkpt>
      <trkpt lat="42.13725" lon="9.08229">
        <ele>2017.2</ele>
      </trkpt>
      <trkpt lat="42.13701" lon="9.08175">
        <ele>2013.9</ele>
      </trkpt>
      <trkpt lat="42.13674" lon="9.07909">
        <ele>2044.6</ele>
      </trkpt>
      <trkpt lat="42.13682" lon="9.07799">
        <ele>2058.1</ele>
      </trkpt>
      <trkpt lat="42.13666" lon="9.07731">
        <ele>2083.8</ele>
      </trkpt>
      <trkpt lat="42.1368" lon="9.07724">
        <ele>2071.3</ele>
      </trkpt>
      <trkpt lat="42.13684" lon="9.07699">
        <ele>2071.5</ele>
      </trkpt>
      <trkpt lat="42.13712" lon="9.07613">
        <ele>2053.3</ele>
      </trkpt>
      <trkpt lat="42.13749" lon="9.07598">
        <ele>2040.5</ele>
      </trkpt>
      <trkpt lat="42.13749" lon="9.07583">
        <ele>2028.5</ele>
      </trkpt>
      <trkpt lat="42.13771" lon="9.07566">
        <ele>2004.1</ele>
      </trkpt>
      <trkpt lat="42.13796" lon="9.07579">
        <ele>1998.4</ele>
      </trkpt>
      <trkpt lat="42.13818" lon="9.07583">
        <ele>2006.8</ele>
      </trkpt>
      <trkpt lat="42.13831" lon="9.07575">
        <ele>1995.5</ele>
      </trkpt>
      <trkpt lat="42.13853" lon="9.07579">
        <ele>1979.4</ele>
      </trkpt>
      <trkpt lat="42.1386" lon="9.07571">
        <ele>1974.8</ele>
      </trkpt>
      <trkpt lat="42.1388" lon="9.0756">
        <ele>1967.3</ele>
      </trkpt>
      <trkpt lat="42.1391" lon="9.07581">
        <ele>1961.9</ele>
      </trkpt>
      <trkpt lat="42.13916" lon="9.07558">
        <ele>1962.2</ele>
      </trkpt>
      <trkpt lat="42.13965" lon="9.07545">
        <ele>1939.7</ele>
      </trkpt>
      <trkpt lat="42.14004" lon="9.07539">
        <ele>1920.2</ele>
      </trkpt>
      <trkpt lat="42.14014" lon="9.07512">
        <ele>1922.5</ele>
      </trkpt>
      <trkpt lat="42.14065" lon="9.07493">
        <ele>1908.8</ele>
      </trkpt>
      <trkpt lat="42.14132" lon="9.07443">
        <ele>1883.8</ele>
      </trkpt>
      <trkpt lat="42.14196" lon="9.07447">
        <ele>1860.3</ele>
      </trkpt>
      <trkpt lat="42.14206" lon="9.07422">
        <ele>1859.2</ele>
      </trkpt>
      <trkpt lat="42.14239" lon="9.07405">
        <ele>1853.2</ele>
      </trkpt>
      <trkpt lat="42.14271" lon="9.07362">
        <ele>1843.7</ele>
      </trkpt>
      <trkpt lat="42.14324" lon="9.07367">
        <ele>1839</ele>
      </trkpt>
      <trkpt lat="42.14457" lon="9.07313">
        <ele>1811.4</ele>
      </trkpt>
      <trkpt lat="42.14554" lon="9.07307">
        <ele>1776.5</ele>
      </trkpt>
      <trkpt lat="42.14602" lon="9.07309">
        <ele>1745.1</ele>
      </trkpt>
      <trkpt lat="42.14619" lon="9.07267">
        <ele>1740.1</ele>
      </trkpt>
      <trkpt lat="42.14668" lon="9.07238">
        <ele>1705.8</ele>
      </trkpt>
      <trkpt lat="42.14682" lon="9.07219">
        <ele>1694.1</ele>
      </trkpt>
      <trkpt lat="42.14714" lon="9.07205">
        <ele>1684.4</ele>
      </trkpt>
      <trkpt lat="42.14746" lon="9.07151">
        <ele>1663.4</ele>
      </trkpt>
      <trkpt lat="42.1487" lon="9.07105">
        <ele>1610</ele>
      </trkpt>
      <trkpt lat="42.14909" lon="9.07071">
        <ele>1595.8</ele>
      </trkpt>
      <trkpt lat="42.14972" lon="9.07048">
        <ele>1575.1</ele>
      </trkpt>
      <trkpt lat="42.14997" lon="9.07029">
        <ele>1570.2</ele>
      </trkpt>
      <trkpt lat="42.15032" lon="9.07054">
        <ele>1549.9</ele>
      </trkpt>
      <trkpt lat="42.15087" lon="9.07052">
        <ele>1519.9</ele>
      </trkpt>
      <trkpt lat="42.15118" lon="9.07068">
        <ele>1516.9</ele>
      </trkpt>
      <trkpt lat="42.15153" lon="9.07066">
        <ele>1510.9</ele>
      </trkpt>
      <trkpt lat="42.15217" lon="9.0715">
        <ele>1490.8</ele>
      </trkpt>
      <trkpt lat="42.15252" lon="9.07155">
        <ele>1477</ele>
      </trkpt>
      <trkpt lat="42.15312" lon="9.07137">
        <ele>1470.5</ele>
      </trkpt>
      <trkpt lat="42.15365" lon="9.07177">
        <ele>1453.8</ele>
      </trkpt>
      <trkpt lat="42.15246" lon="9.07255">
        <ele>1445.6</ele>
      </trkpt>
      <trkpt lat="42.15238" lon="9.07265">
        <ele>1443.5</ele>
      </trkpt>
      <trkpt lat="42.15242" lon="9.0728">
        <ele>1440.5</ele>
      </trkpt>
      <trkpt lat="42.15262" lon="9.073">
        <ele>1425.2</ele>
      </trkpt>
      <trkpt lat="42.15295" lon="9.07319">
        <ele>1420.3</ele>
      </trkpt>
      <trkpt lat="42.15299" lon="9.0733">
        <ele>1418.5</ele>
      </trkpt>
      <trkpt lat="42.15298" lon="9.07354">
        <ele>1400.7</ele>
      </trkpt>
      <trkpt lat="42.15314" lon="9.07383">
        <ele>1396.2</ele>
      </trkpt>
      <trkpt lat="42.15325" lon="9.07394">
        <ele>1393.4</ele>
      </trkpt>
    </trkseg>
  </trk>
</gpx>